Time;durP1;ratioP1;P1;durP2;ratioP2;P2;SDS_P1;SDS_P2;PMS_P1;PMS_P2;Temp;Humidity;BMP_temperature;BMP_pressure;BME280_temperature;BME280_humidity;BME280_pressure;Samples;Min_cycle;Max_cycle;Signal;HPM_P1;HPM_P2
2023/04/05 00:01:40;;;;;;;0.40;0.40;;;6.70;99.90;;;;;;5094592;28;20027;-72
2023/04/05 00:04:06;;;;;;;0.10;0.10;;;6.80;99.90;;;;;;5094682;28;20468;-71
2023/04/05 00:06:33;;;;;;;1.35;0.93;;;6.70;99.90;;;;;;5094621;28;20028;-72
2023/04/05 00:09:00;;;;;;;0.20;0.20;;;6.70;99.90;;;;;;5094617;28;20028;-72
2023/04/05 00:11:28;;;;;;;0.10;0.10;;;6.90;99.90;;;;;;5094547;28;20036;-72
2023/04/05 00:13:55;;;;;;;0.15;0.15;;;6.80;99.90;;;;;;5093377;28;20020;-71
2023/04/05 00:16:21;;;;;;;0.30;0.30;;;6.80;99.90;;;;;;5094322;28;20024;-72
2023/04/05 00:18:48;;;;;;;0.85;0.80;;;6.60;99.90;;;;;;5085722;28;20121;-71
2023/04/05 00:21:20;;;;;;;0.10;0.10;;;5.90;99.90;;;;;;5089133;28;20165;-72
2023/04/05 00:23:50;;;;;;;;;;;5.90;99.90;;;;;;5093235;28;20028;-72
2023/04/05 00:26:17;;;;;;;0.10;0.10;;;5.90;99.90;;;;;;5094079;28;19915;-71
2023/04/05 00:28:47;;;;;;;0.20;0.20;;;5.80;99.90;;;;;;5092772;28;20043;-72
2023/04/05 00:31:14;;;;;;;0.10;0.10;;;5.30;99.90;;;;;;5094404;28;20077;-71
2023/04/05 00:33:40;;;;;;;0.45;0.45;;;5.70;99.90;;;;;;5092416;28;20032;-72
2023/04/05 00:36:19;;;;;;;0.10;0.10;;;5.70;99.90;;;;;;5092831;28;20067;-72
2023/04/05 00:38:47;;;;;;;0.30;0.30;;;5.60;99.90;;;;;;5093301;28;20024;-72
2023/04/05 00:41:13;;;;;;;0.10;0.10;;;5.80;99.90;;;;;;5094263;28;20380;-72
2023/04/05 00:43:40;;;;;;;0.20;0.20;;;5.70;99.90;;;;;;5092705;28;20027;-72
2023/04/05 00:46:06;;;;;;;2.97;1.42;;;5.80;99.90;;;;;;5093755;28;20507;-72
2023/04/05 00:48:33;;;;;;;7.43;2.95;;;5.50;99.90;;;;;;5093950;28;20032;-72
2023/04/05 00:50:59;;;;;;;0.10;0.10;;;5.30;99.90;;;;;;5092308;28;20123;-72
2023/04/05 00:53:26;;;;;;;1.58;1.48;;;5.20;99.90;;;;;;5069994;28;20392;-72
2023/04/05 00:55:53;;;;;;;0.10;0.10;;;5.30;99.90;;;;;;5092277;28;20028;-71
2023/04/05 00:58:21;;;;;;;3.55;1.23;;;5.60;99.90;;;;;;5075676;28;20031;-71
2023/04/05 01:00:53;;;;;;;0.10;0.10;;;5.50;99.90;;;;;;5091879;28;20035;-72
2023/04/05 01:03:24;;;;;;;0.10;0.10;;;5.60;99.90;;;;;;5093560;28;20468;-72
2023/04/05 01:06:09;;;;;;;0.77;0.77;;;5.50;99.90;;;;;;5092149;28;20078;-72
2023/04/05 01:09:07;;;;;;;0.17;0.17;;;5.60;99.90;;;;;;5092267;28;20047;-72
2023/04/05 01:11:36;;;;;;;0.10;0.10;;;5.50;99.90;;;;;;5088235;28;20131;-72
2023/04/05 01:14:02;;;;;;;0.60;0.60;;;5.50;99.90;;;;;;5093387;28;20031;-72
2023/04/05 01:16:28;;;;;;;0.20;0.20;;;5.90;99.90;;;;;;5093248;28;20081;-71
2023/04/05 01:18:58;;;;;;;0.10;0.10;;;5.90;99.90;;;;;;5093549;28;20012;-72
2023/04/05 01:21:38;;;;;;;0.20;0.20;;;5.90;99.90;;;;;;5089384;28;20423;-72
2023/04/05 01:24:26;;;;;;;0.10;0.10;;;6.00;99.90;;;;;;5082145;28;20130;-72
2023/04/05 01:27:18;;;;;;;0.10;0.10;;;5.80;99.90;;;;;;5091652;28;20020;-72
2023/04/05 01:29:46;;;;;;;10.15;5.18;;;5.50;99.90;;;;;;5091780;28;20035;-72
2023/04/05 01:32:19;;;;;;;0.20;0.20;;;5.20;99.90;;;;;;5091709;28;20032;-72
2023/04/05 01:35:09;;;;;;;0.00;0.00;;;5.50;99.90;;;;;;5093123;28;20043;-72
2023/04/05 01:37:39;;;;;;;0.10;0.10;;;5.70;99.90;;;;;;5091554;28;20476;-72
2023/04/05 01:40:07;;;;;;;0.20;0.20;;;5.30;99.90;;;;;;5091693;28;20377;-71
2023/04/05 01:42:35;;;;;;;2.05;1.95;;;5.40;99.90;;;;;;5091613;28;20110;-72
2023/04/05 01:45:00;;;;;;;1.15;1.15;;;5.00;99.90;;;;;;5092872;28;20028;-72
2023/04/05 01:47:26;;;;;;;0.43;0.43;;;4.50;99.90;;;;;;5092956;28;20041;-72
2023/04/05 01:49:52;;;;;;;0.40;0.40;;;4.30;99.90;;;;;;5083523;28;20146;-72
2023/04/05 01:52:17;;;;;;;0.10;0.10;;;4.10;99.90;;;;;;5091337;28;20043;-72
2023/04/05 01:54:43;;;;;;;0.10;0.10;;;4.10;99.90;;;;;;5091484;28;20020;-72
2023/04/05 01:57:09;;;;;;;0.68;0.68;;;4.40;99.90;;;;;;5091156;28;20047;-71
2023/04/05 01:59:35;;;;;;;4.65;4.38;;;4.40;99.90;;;;;;5091547;28;20115;-72
2023/04/05 02:02:00;;;;;;;0.28;0.28;;;4.60;99.90;;;;;;5095937;28;20036;-72
2023/04/05 02:04:27;;;;;;;0.10;0.10;;;4.70;99.90;;;;;;5099223;28;20468;-72
2023/04/05 02:06:53;;;;;;;0.10;0.10;;;4.90;99.90;;;;;;5099334;28;20031;-72
2023/04/05 02:09:18;;;;;;;0.10;0.10;;;5.00;99.90;;;;;;5099483;28;20040;-72
2023/04/05 02:11:44;;;;;;;0.10;0.10;;;5.30;99.90;;;;;;5095019;28;20048;-72
2023/04/05 02:14:11;;;;;;;0.30;0.30;;;5.30;99.90;;;;;;5089575;28;20030;-73
2023/04/05 02:16:36;;;;;;;0.20;0.20;;;5.10;99.90;;;;;;5099065;28;20036;-72
2023/04/05 02:19:02;;;;;;;0.10;0.10;;;5.10;99.90;;;;;;5099275;28;20036;-72
2023/04/05 02:21:30;;;;;;;0.43;0.43;;;5.10;99.90;;;;;;5098333;28;20063;-72
2023/04/05 02:23:56;;;;;;;2.53;0.50;;;5.20;99.90;;;;;;5097437;28;20038;-72
2023/04/05 02:26:22;;;;;;;0.38;0.38;;;4.90;99.90;;;;;;5081121;28;20024;-71
2023/04/05 02:28:49;;;;;;;6.22;5.68;;;4.90;99.90;;;;;;5099168;28;20024;-73
2023/04/05 02:31:15;;;;;;;0.20;0.20;;;4.60;99.90;;;;;;5098218;28;20031;-72
2023/04/05 02:33:41;;;;;;;0.60;0.60;;;4.60;99.90;;;;;;5098920;28;20059;-72
2023/04/05 02:36:11;;;;;;;0.20;0.20;;;4.70;99.90;;;;;;5098075;28;20059;-72
2023/04/05 02:38:37;;;;;;;0.10;0.10;;;4.70;99.90;;;;;;5097907;28;20450;-71
2023/04/05 02:41:02;;;;;;;0.10;0.10;;;4.90;99.90;;;;;;5097965;28;20116;-71
2023/04/05 02:43:29;;;;;;;0.30;0.30;;;5.00;99.90;;;;;;5097974;28;20024;-72
2023/04/05 02:45:55;;;;;;;0.38;0.38;;;4.90;99.90;;;;;;5099096;28;20058;-72
2023/04/05 02:48:22;;;;;;;0.43;0.43;;;5.00;99.90;;;;;;5097542;28;20016;-72
2023/04/05 02:50:49;;;;;;;1.27;1.02;;;5.00;99.90;;;;;;5099024;28;20035;-72
2023/04/05 02:53:20;;;;;;;0.10;0.10;;;4.80;99.90;;;;;;5097976;28;20071;-72
2023/04/05 02:55:54;;;;;;;0.45;0.45;;;4.50;99.90;;;;;;5097786;28;20034;-72
2023/04/05 02:58:20;;;;;;;0.20;0.20;;;3.90;99.90;;;;;;5097735;28;20058;-72
2023/04/05 03:00:51;;;;;;;2.90;1.00;;;3.70;99.90;;;;;;5097715;28;20051;-72
2023/04/05 03:03:23;;;;;;;0.85;0.85;;;3.60;99.90;;;;;;5097600;28;20383;-72
2023/04/05 03:05:59;;;;;;;1.23;1.13;;;3.70;99.90;;;;;;5097618;28;20024;-72
2023/04/05 03:08:27;;;;;;;1.30;1.30;;;3.50;99.90;;;;;;5097632;28;20107;-72
2023/04/05 03:11:00;;;;;;;56.65;5.10;;;3.50;99.90;;;;;;5097488;28;20036;-73
2023/04/05 03:13:26;;;;;;;0.22;0.22;;;3.90;99.90;;;;;;5094878;28;20357;-72
2023/04/05 03:15:53;;;;;;;0.10;0.10;;;4.00;99.90;;;;;;5094234;28;20035;-72
2023/04/05 03:18:20;;;;;;;0.10;0.10;;;4.00;99.90;;;;;;5093925;28;20083;-72
2023/04/05 03:20:49;;;;;;;4.13;1.08;;;4.10;99.90;;;;;;5094357;28;20051;-72
2023/04/05 03:23:18;;;;;;;2.83;1.85;;;3.90;99.90;;;;;;5094043;28;20539;-72
2023/04/05 03:25:47;;;;;;;0.63;0.63;;;3.40;99.90;;;;;;5094189;28;20028;-72
2023/04/05 03:28:17;;;;;;;0.32;0.32;;;3.40;99.90;;;;;;5095335;28;20369;-72
2023/04/05 03:30:45;;;;;;;0.10;0.10;;;3.50;99.90;;;;;;5094184;28;20035;-72
2023/04/05 03:33:17;;;;;;;0.75;0.75;;;3.80;99.90;;;;;;5093626;28;20051;-72
2023/04/05 03:35:47;;;;;;;0.73;0.73;;;3.90;99.90;;;;;;5094286;28;20043;-72
2023/04/05 03:38:14;;;;;;;0.10;0.10;;;3.70;99.90;;;;;;5076914;28;20039;-72
2023/04/05 03:40:53;;;;;;;0.10;0.10;;;3.80;99.90;;;;;;5093949;28;20047;-72
2023/04/05 03:43:18;;;;;;;0.22;0.22;;;3.90;99.90;;;;;;5095028;28;20395;-72
2023/04/05 03:45:44;;;;;;;0.10;0.10;;;3.60;99.90;;;;;;5094934;28;20028;-72
2023/04/05 03:48:10;;;;;;;0.60;0.60;;;3.30;99.90;;;;;;5093616;28;20460;-72
2023/04/05 03:50:36;;;;;;;0.55;0.55;;;3.10;99.90;;;;;;5093594;28;20480;-72
2023/04/05 03:53:02;;;;;;;0.35;0.32;;;3.00;99.90;;;;;;5093285;28;20062;-72
2023/04/05 03:55:28;;;;;;;1.35;1.27;;;3.00;99.90;;;;;;5093550;28;20027;-72
2023/04/05 03:57:56;;;;;;;0.38;0.38;;;3.30;99.90;;;;;;5093439;28;20372;-72
2023/04/05 04:00:27;;;;;;;2.95;0.50;;;3.60;99.90;;;;;;5093410;28;20491;-72
2023/04/05 04:03:09;;;;;;;0.90;0.90;;;3.50;99.90;;;;;;5093329;28;20539;-72
2023/04/05 04:05:39;;;;;;;0.10;0.10;;;3.40;99.90;;;;;;5093420;28;20115;-72
2023/04/05 04:08:05;;;;;;;0.10;0.10;;;3.70;99.90;;;;;;5092957;28;20024;-72
2023/04/05 04:10:31;;;;;;;0.10;0.10;;;3.80;99.90;;;;;;5094351;28;20028;-72
2023/04/05 04:12:57;;;;;;;0.10;0.10;;;3.80;99.90;;;;;;5092997;28;20115;-72
2023/04/05 04:15:28;;;;;;;1.23;0.88;;;4.10;99.90;;;;;;5076760;28;20024;-72
2023/04/05 04:18:12;;;;;;;0.20;0.20;;;4.20;99.90;;;;;;5093371;28;20453;-72
2023/04/05 04:20:53;;;;;;;0.10;0.10;;;4.10;99.90;;;;;;5092918;28;20016;-72
2023/04/05 04:23:45;;;;;;;0.10;0.10;;;4.20;99.90;;;;;;5092987;28;20046;-72
2023/04/05 04:26:39;;;;;;;0.10;0.10;;;4.10;99.90;;;;;;5092988;28;20028;-72
2023/04/05 04:29:16;;;;;;;0.65;0.65;;;4.10;99.90;;;;;;5092487;28;20491;-72
2023/04/05 04:31:56;;;;;;;0.10;0.10;;;4.00;99.90;;;;;;5092811;28;20030;-72
2023/04/05 04:34:49;;;;;;;;;;;3.80;99.90;;;;;;5087197;28;20035;-72
2023/04/05 04:37:37;;;;;;;0.30;0.30;;;3.80;99.90;;;;;;5093496;28;19920;-72
2023/04/05 04:40:38;;;;;;;1.10;1.10;;;3.80;99.90;;;;;;5085958;28;20500;-72
2023/04/05 04:43:32;;;;;;;1.13;1.13;;;3.70;99.90;;;;;;5092033;28;20028;-72
2023/04/05 04:46:17;;;;;;;0.10;0.10;;;3.60;99.90;;;;;;5093312;28;20124;-72
2023/04/05 04:49:20;;;;;;;0.10;0.10;;;3.80;99.90;;;;;;5087576;28;20044;-72
2023/04/05 04:51:47;;;;;;;0.43;0.43;;;3.60;99.90;;;;;;5092572;28;20026;-72
2023/04/05 04:54:15;;;;;;;0.47;0.47;;;3.30;99.90;;;;;;5093633;28;20031;-72
2023/04/05 04:56:41;;;;;;;0.20;0.20;;;2.90;99.90;;;;;;5094059;28;20055;-73
2023/04/05 04:59:07;;;;;;;1.02;1.00;;;2.80;99.90;;;;;;5092164;28;20016;-72
2023/04/05 05:01:33;;;;;;;0.10;0.10;;;2.80;99.90;;;;;;5093754;28;20072;-73
2023/04/05 05:04:02;;;;;;;0.10;0.10;;;2.90;99.90;;;;;;5091828;28;20073;-73
2023/04/05 05:06:32;;;;;;;1.70;1.58;;;3.30;99.90;;;;;;5092008;28;20023;-72
2023/04/05 05:08:58;;;;;;;0.40;0.40;;;3.50;99.90;;;;;;5093393;28;20030;-73
2023/04/05 05:11:27;;;;;;;0.10;0.10;;;3.40;99.90;;;;;;5092402;28;20089;-73
2023/04/05 05:13:53;;;;;;;0.10;0.10;;;3.40;99.90;;;;;;5093427;28;20036;-73
2023/04/05 05:16:23;;;;;;;0.10;0.10;;;3.50;99.90;;;;;;5093730;28;20039;-73
2023/04/05 05:18:51;;;;;;;0.10;0.10;;;3.40;99.90;;;;;;5095218;28;20028;-72
2023/04/05 05:21:17;;;;;;;1.88;1.75;;;3.40;99.90;;;;;;5093330;28;20028;-73
2023/04/05 05:23:49;;;;;;;;;;;3.40;99.90;;;;;;5092756;28;20032;-73
2023/04/05 05:26:15;;;;;;;0.10;0.10;;;3.40;99.90;;;;;;5078612;28;19908;-73
2023/04/05 05:28:42;;;;;;;2.25;2.13;;;3.50;99.90;;;;;;5057639;28;20025;-72
2023/04/05 05:31:07;;;;;;;0.63;0.63;;;3.50;99.90;;;;;;5083933;28;20111;-73
2023/04/05 05:33:35;;;;;;;0.20;0.20;;;3.50;99.90;;;;;;5091877;28;20021;-72
2023/04/05 05:36:02;;;;;;;0.30;0.30;;;3.30;99.90;;;;;;5074354;28;20390;-73
2023/04/05 05:38:27;;;;;;;0.17;0.17;;;3.20;99.90;;;;;;5092655;28;20120;-73
2023/04/05 05:40:56;;;;;;;0.10;0.10;;;3.30;99.90;;;;;;5092959;28;20107;-72
2023/04/05 05:43:22;;;;;;;0.20;0.20;;;3.60;99.90;;;;;;5092905;28;20017;-72
2023/04/05 05:45:48;;;;;;;0.15;0.15;;;3.50;99.90;;;;;;5092927;28;20361;-73
2023/04/05 05:48:15;;;;;;;3.85;2.13;;;3.50;99.90;;;;;;5092837;28;20476;-73
2023/04/05 05:50:40;;;;;;;0.10;0.10;;;3.50;99.90;;;;;;5074683;28;20020;-72
2023/04/05 05:53:06;;;;;;;0.00;0.00;;;3.60;99.90;;;;;;5092791;28;20115;-72
2023/04/05 05:55:32;;;;;;;0.17;0.17;;;3.80;99.90;;;;;;5092738;28;20110;-72
2023/04/05 05:57:58;;;;;;;0.10;0.10;;;4.00;99.90;;;;;;5092598;28;20534;-73
2023/04/05 06:00:24;;;;;;;2.30;1.05;;;4.00;99.90;;;;;;5092856;28;20108;-72
2023/04/05 06:02:51;;;;;;;0.10;0.10;;;4.10;99.90;;;;;;5091216;28;20115;-72
2023/04/05 06:05:17;;;;;;;0.10;0.10;;;4.10;99.90;;;;;;5092825;28;20067;-73
2023/04/05 06:07:42;;;;;;;0.10;0.10;;;4.20;99.90;;;;;;5092569;28;20480;-72
2023/04/05 06:10:09;;;;;;;0.40;0.40;;;4.50;99.90;;;;;;5092538;28;20082;-73
2023/04/05 06:12:34;;;;;;;0.10;0.10;;;4.50;99.90;;;;;;5092185;28;20032;-73
2023/04/05 06:15:01;;;;;;;0.10;0.10;;;4.50;99.90;;;;;;5092442;28;20512;-72
2023/04/05 06:17:27;;;;;;;0.20;0.20;;;4.60;99.90;;;;;;5092543;28;20044;-74
2023/04/05 06:19:53;;;;;;;0.10;0.10;;;4.90;99.90;;;;;;5092574;28;20375;-73
2023/04/05 06:22:19;;;;;;;0.10;0.10;;;5.20;99.90;;;;;;5092495;28;20032;-73
2023/04/05 06:24:44;;;;;;;0.85;0.65;;;5.40;99.90;;;;;;5092238;28;20016;-73
2023/04/05 06:27:13;;;;;;;0.10;0.10;;;5.60;99.90;;;;;;5067515;28;20070;-72
2023/04/05 06:29:39;;;;;;;0.10;0.10;;;5.70;99.90;;;;;;5075622;28;20028;-73
2023/04/05 06:32:05;;;;;;;0.20;0.20;;;5.70;99.90;;;;;;5074470;28;20091;-72
2023/04/05 06:34:30;;;;;;;0.32;0.32;;;5.60;99.90;;;;;;5072677;28;20487;-73
2023/04/05 06:36:57;;;;;;;0.50;0.50;;;5.80;99.90;;;;;;5074716;28;20107;-72
2023/04/05 06:39:23;;;;;;;0.10;0.10;;;5.80;99.90;;;;;;5078118;28;20468;-72
2023/04/05 06:41:49;;;;;;;0.10;0.10;;;5.70;99.90;;;;;;5075580;28;20246;-72
2023/04/05 06:44:15;;;;;;;9.20;7.38;;;6.00;99.90;;;;;;5073205;28;20032;-72
2023/04/05 06:46:40;;;;;;;0.20;0.20;;;6.10;99.90;;;;;;5080179;28;20020;-73
2023/04/05 06:49:06;;;;;;;0.50;0.50;;;6.30;99.90;;;;;;5074947;28;20052;-72
2023/04/05 06:51:32;;;;;;;1.90;1.75;;;6.50;99.90;;;;;;5081104;28;20517;-72
2023/04/05 06:53:57;;;;;;;0.50;0.50;;;6.60;99.90;;;;;;5074570;28;20032;-72
2023/04/05 06:56:23;;;;;;;2.67;1.40;;;6.40;99.90;;;;;;5075621;28;20041;-72
2023/04/05 06:58:50;;;;;;;1.33;1.23;;;6.40;99.90;;;;;;5090973;28;20024;-72
2023/04/05 07:01:16;;;;;;;1.08;0.57;;;6.50;99.90;;;;;;5074968;28;20488;-72
2023/04/05 07:03:42;;;;;;;0.55;0.55;;;6.20;99.90;;;;;;5075960;28;20130;-71
2023/04/05 07:06:09;;;;;;;0.17;0.17;;;6.20;99.90;;;;;;5074891;28;20044;-72
2023/04/05 07:08:34;;;;;;;0.60;0.60;;;6.20;99.90;;;;;;5087021;28;20024;-73
2023/04/05 07:11:00;;;;;;;2.58;2.10;;;6.30;99.90;;;;;;5085588;28;20024;-72
2023/04/05 07:13:26;;;;;;;1.80;1.38;;;6.50;99.90;;;;;;5077582;28;20028;-72
2023/04/05 07:15:59;;;;;;;0.93;0.80;;;6.50;99.90;;;;;;5074895;28;20093;-72
2023/04/05 07:18:25;;;;;;;4.65;3.70;;;6.40;99.90;;;;;;5088256;28;20031;-72
2023/04/05 07:20:52;;;;;;;1.17;1.08;;;6.60;99.90;;;;;;5088104;28;20028;-72
2023/04/05 07:23:18;;;;;;;3.92;1.75;;;6.70;99.90;;;;;;5081164;28;20468;-72
2023/04/05 07:25:44;;;;;;;0.45;0.45;;;6.80;99.90;;;;;;5067792;28;20086;-71
2023/04/05 07:28:10;;;;;;;1.88;1.73;;;7.00;99.90;;;;;;5074278;28;20038;-72
2023/04/05 07:30:36;;;;;;;0.45;0.45;;;7.00;99.90;;;;;;5078040;28;20021;-72
2023/04/05 07:33:01;;;;;;;0.43;0.20;;;7.10;99.90;;;;;;5086855;28;20028;-72
2023/04/05 07:35:28;;;;;;;2.55;2.35;;;7.30;99.90;;;;;;5078368;28;20020;-72
2023/04/05 07:37:55;;;;;;;4.15;3.75;;;7.00;99.90;;;;;;5075391;28;20154;-72
2023/04/05 07:40:21;;;;;;;1.63;1.08;;;7.00;99.90;;;;;;5075653;28;20108;-72
2023/04/05 07:42:46;;;;;;;1.48;0.82;;;7.00;99.90;;;;;;5078277;28;20539;-72
2023/04/05 07:45:12;;;;;;;0.63;0.57;;;7.20;99.90;;;;;;5083510;28;20111;-77
2023/04/05 07:47:38;;;;;;;0.55;0.55;;;7.40;99.90;;;;;;5081246;28;20081;-78
2023/04/05 07:50:05;;;;;;;3.42;1.90;;;7.50;99.90;;;;;;5077070;28;20111;-76
2023/04/05 07:52:31;;;;;;;5.35;4.97;;;7.70;99.90;;;;;;5082729;28;20035;-79
2023/04/05 07:54:57;;;;;;;3.05;1.33;;;7.80;99.90;;;;;;5080065;28;20024;-75
2023/04/05 07:57:23;;;;;;;1.38;1.27;;;8.20;99.90;;;;;;5077534;28;20040;-76
2023/04/05 07:59:53;;;;;;;1.13;1.00;;;8.30;99.90;;;;;;5092279;28;20026;-77
2023/04/05 08:02:19;;;;;;;1.05;0.85;;;8.20;99.90;;;;;;5095220;28;20118;-74
2023/04/05 08:04:45;;;;;;;0.47;0.47;;;8.00;99.90;;;;;;5094677;28;20111;-73
2023/04/05 08:07:11;;;;;;;0.38;0.38;;;8.10;99.90;;;;;;5093466;28;20031;-74
2023/04/05 08:09:37;;;;;;;0.75;0.75;;;8.20;99.90;;;;;;5093348;28;20020;-77
2023/04/05 08:12:03;;;;;;;4.43;2.75;;;8.50;99.90;;;;;;5087890;28;20037;-79
2023/04/05 08:14:29;;;;;;;2.75;1.65;;;8.40;99.90;;;;;;5087178;28;20277;-80
2023/04/05 08:16:54;;;;;;;0.10;0.10;;;8.40;99.40;;;;;;5085724;28;20032;-80
2023/04/05 08:19:20;;;;;;;2.72;1.25;;;8.50;99.80;;;;;;5083978;28;20031;-80
2023/04/05 08:21:46;;;;;;;1.80;1.60;;;8.60;98.90;;;;;;5076164;28;20024;-81
2023/04/05 08:24:12;;;;;;;11.30;3.67;;;8.80;99.70;;;;;;5072520;28;20060;-78
2023/04/05 08:26:38;;;;;;;0.10;0.10;;;9.00;99.40;;;;;;5073887;28;20056;-81
2023/04/05 08:29:04;;;;;;;2.10;1.23;;;9.30;99.30;;;;;;5086709;28;20072;-78
2023/04/05 08:31:29;;;;;;;0.00;0.00;;;9.60;98.70;;;;;;5081035;28;20119;-78
2023/04/05 08:33:55;;;;;;;0.60;0.60;;;10.00;97.70;;;;;;5073935;28;20069;-78
2023/04/05 08:36:21;;;;;;;1.23;0.55;;;10.20;95.90;;;;;;5073116;28;20337;-78
2023/04/05 08:38:47;;;;;;;1.02;0.73;;;10.00;94.90;;;;;;5066767;28;20048;-78
2023/04/05 08:41:31;;;;;;;0.88;0.88;;;10.30;95.60;;;;;;5085589;28;20427;-78
2023/04/05 08:44:01;;;;;;;1.65;1.55;;;10.50;95.50;;;;;;5076376;28;20392;-78
2023/04/05 08:46:31;;;;;;;20.38;2.55;;;10.50;93.60;;;;;;5074666;28;20032;-77
2023/04/05 08:48:57;;;;;;;1.70;1.17;;;10.20;92.10;;;;;;5076731;28;20032;-77
2023/04/05 08:51:25;;;;;;;1.35;0.95;;;10.20;93.40;;;;;;5085586;28;20497;-75
2023/04/05 08:53:51;;;;;;;2.75;0.57;;;10.00;94.50;;;;;;5079087;28;20082;-75
2023/04/05 08:56:31;;;;;;;2.58;1.67;;;10.00;92.60;;;;;;5074639;28;20052;-76
2023/04/05 08:59:00;;;;;;;8.65;1.95;;;10.20;91.80;;;;;;5086767;28;20425;-76
2023/04/05 09:01:29;;;;;;;1.88;1.17;;;10.30;92.40;;;;;;5092724;28;20020;-77
2023/04/05 09:04:04;;;;;;;0.73;0.38;;;10.40;92.50;;;;;;5092720;28;20039;-77
2023/04/05 09:06:30;;;;;;;18.83;5.82;;;10.60;93.10;;;;;;5087043;28;20426;-77
2023/04/05 09:08:58;;;;;;;0.10;0.10;;;10.60;93.20;;;;;;5092213;28;20081;-76
2023/04/05 09:11:25;;;;;;;0.93;0.35;;;10.90;92.60;;;;;;5091131;28;20035;-77
2023/04/05 09:13:51;;;;;;;1.35;1.25;;;11.10;93.00;;;;;;5081371;28;20383;-76
2023/04/05 09:16:17;;;;;;;1.52;1.42;;;11.10;92.90;;;;;;5078883;28;20033;-77
2023/04/05 09:18:42;;;;;;;1.17;1.02;;;11.50;92.50;;;;;;5078438;28;20089;-76
2023/04/05 09:21:09;;;;;;;0.10;0.10;;;11.50;92.30;;;;;;5075785;28;20016;-75
2023/04/05 09:23:36;;;;;;;2.50;2.35;;;11.80;91.80;;;;;;5065817;28;20056;-75
2023/04/05 09:26:22;;;;;;;3.75;1.20;;;12.00;92.00;;;;;;5071844;28;20031;-77
2023/04/05 09:28:51;;;;;;;0.25;0.25;;;12.30;92.50;;;;;;5079442;28;20029;-76
2023/04/05 09:31:35;;;;;;;0.20;0.20;;;12.50;91.70;;;;;;5083664;28;20039;-76
2023/04/05 09:34:07;;;;;;;7.22;2.50;;;12.30;91.20;;;;;;5067760;28;20503;-75
2023/04/05 09:36:34;;;;;;;1.45;1.13;;;12.20;90.80;;;;;;5073250;28;20151;-75
2023/04/05 09:39:08;;;;;;;3.22;2.63;;;12.60;90.40;;;;;;5088825;28;20054;-76
2023/04/05 09:41:35;;;;;;;3.30;3.03;;;12.40;90.80;;;;;;5086066;28;20118;-75
2023/04/05 09:44:01;;;;;;;0.80;0.47;;;12.40;91.10;;;;;;5076452;28;20499;-77
2023/04/05 09:46:32;;;;;;;5.72;2.97;;;12.80;90.80;;;;;;5076365;28;20427;-75
2023/04/05 09:48:59;;;;;;;3.10;2.05;;;13.20;89.30;;;;;;5074292;28;20376;-75
2023/04/05 09:51:35;;;;;;;0.43;0.43;;;12.90;87.90;;;;;;5088291;28;20024;-76
2023/04/05 09:54:08;;;;;;;2.65;1.45;;;12.80;90.70;;;;;;5079113;28;20021;-78
2023/04/05 09:56:40;;;;;;;6.72;3.58;;;13.00;90.00;;;;;;5076619;28;20407;-76
2023/04/05 09:59:10;;;;;;;;;;;12.40;90.70;;;;;;5063999;28;20038;-77
2023/04/05 10:01:43;;;;;;;1.63;0.85;;;12.50;90.80;;;;;;5043979;28;19920;-77
2023/04/05 10:04:09;;;;;;;7.20;2.92;;;12.60;91.00;;;;;;5079593;28;20485;-76
2023/04/05 10:06:36;;;;;;;2.10;0.85;;;12.70;90.50;;;;;;5063625;28;20352;-78
2023/04/05 10:09:04;;;;;;;1.17;0.88;;;13.00;90.30;;;;;;5090476;28;20115;-76
2023/04/05 10:11:30;;;;;;;1.50;0.93;;;13.20;90.30;;;;;;5090433;28;20032;-75
2023/04/05 10:14:00;;;;;;;0.20;0.20;;;13.30;90.20;;;;;;5074550;28;20113;-77
2023/04/05 10:16:28;;;;;;;0.68;0.68;;;13.50;90.20;;;;;;5074046;28;20032;-75
2023/04/05 10:18:54;;;;;;;0.25;0.20;;;13.50;90.30;;;;;;5084199;28;20061;-77
2023/04/05 10:21:22;;;;;;;8.93;3.03;;;13.50;90.00;;;;;;5080249;28;20035;-78
2023/04/05 10:24:01;;;;;;;5.63;2.40;;;13.80;90.00;;;;;;5076568;28;20028;-77
2023/04/05 10:26:40;;;;;;;2.25;1.55;;;13.60;86.40;;;;;;5075269;28;20039;-76
2023/04/05 10:29:12;;;;;;;1.00;0.68;;;13.40;87.70;;;;;;5069422;28;20035;-77
2023/04/05 10:31:50;;;;;;;2.80;1.85;;;13.00;87.90;;;;;;5081303;28;20024;-76
2023/04/05 10:34:50;;;;;;;3.97;2.38;;;12.80;87.20;;;;;;5073371;28;20528;-76
2023/04/05 10:37:34;;;;;;;3.03;2.15;;;12.90;87.00;;;;;;5073382;28;20174;-76
2023/04/05 10:40:03;;;;;;;0.43;0.43;;;13.10;88.20;;;;;;5085855;28;20185;-79
2023/04/05 10:42:42;;;;;;;2.15;1.55;;;13.60;87.90;;;;;;5083433;28;20033;-77
2023/04/05 10:45:14;;;;;;;2.10;0.85;;;13.30;87.70;;;;;;5073891;28;20042;-77
2023/04/05 10:47:53;;;;;;;1.38;0.57;;;13.40;86.90;;;;;;5074209;28;20051;-77
2023/04/05 10:50:23;;;;;;;10.95;5.10;;;13.80;87.30;;;;;;5074839;28;20021;-77
2023/04/05 10:52:54;;;;;;;0.52;0.30;;;13.60;86.30;;;;;;5084652;28;20037;-76
2023/04/05 10:55:23;;;;;;;2.53;2.22;;;13.00;87.90;;;;;;5083276;28;20062;-76
2023/04/05 10:57:49;;;;;;;4.07;1.55;;;13.50;90.00;;;;;;5080882;28;20028;-77
2023/04/05 11:00:17;;;;;;;0.80;0.80;;;13.40;87.20;;;;;;5084990;28;20100;-80
2023/04/05 11:02:44;;;;;;;4.28;2.63;;;14.00;86.20;;;;;;5090590;28;20043;-82
2023/04/05 11:05:34;;;;;;;4.13;1.55;;;14.00;85.40;;;;;;5094186;28;20046;-76
2023/04/05 11:08:07;;;;;;;0.25;0.25;;;14.20;84.40;;;;;;5093598;28;20032;-75
2023/04/05 11:10:35;;;;;;;0.10;0.10;;;14.40;85.00;;;;;;5094804;28;20058;-76
2023/04/05 11:13:02;;;;;;;5.28;1.00;;;14.80;86.30;;;;;;5086230;28;20016;-78
2023/04/05 11:15:31;;;;;;;6.32;3.40;;;15.30;85.80;;;;;;5094354;28;20024;-78
2023/04/05 11:18:15;;;;;;;1.75;1.48;;;14.70;86.20;;;;;;5093331;28;20040;-77
2023/04/05 11:20:42;;;;;;;0.80;0.52;;;15.20;85.20;;;;;;5094462;28;20032;-78
2023/04/05 11:23:15;;;;;;;0.00;0.00;;;15.20;84.00;;;;;;5093207;28;20036;-77
2023/04/05 11:26:05;;;;;;;0.35;0.35;;;15.70;83.30;;;;;;5093430;28;20036;-77
2023/04/05 11:28:36;;;;;;;0.65;0.65;;;15.60;84.70;;;;;;5094626;28;20414;-78
2023/04/05 11:31:17;;;;;;;2.33;2.08;;;15.70;85.80;;;;;;5075872;28;20395;-77
2023/04/05 11:33:59;;;;;;;7.95;3.40;;;15.60;82.70;;;;;;5093607;28;20038;-77
2023/04/05 11:36:47;;;;;;;0.70;0.68;;;15.40;81.10;;;;;;5088337;28;20449;-77
2023/04/05 11:39:21;;;;;;;3.78;2.30;;;15.10;82.10;;;;;;5071138;28;20039;-78
2023/04/05 11:41:52;;;;;;;5.30;3.25;;;15.60;84.30;;;;;;5092166;28;20040;-77
2023/04/05 11:44:18;;;;;;;0.87;0.80;;;15.20;80.60;;;;;;5088343;28;20054;-79
2023/04/05 11:46:47;;;;;;;1.38;1.27;;;14.50;82.40;;;;;;5093940;28;20777;-77
2023/04/05 11:49:14;;;;;;;2.72;2.03;;;14.10;82.50;;;;;;5093962;28;20028;-77
2023/04/05 11:51:47;;;;;;;3.72;2.47;;;14.70;83.10;;;;;;5094274;28;20733;-77
2023/04/05 11:54:14;;;;;;;1.02;0.73;;;14.60;82.20;;;;;;5082020;28;20024;-77
2023/04/05 11:56:41;;;;;;;1.30;1.20;;;14.90;81.10;;;;;;5094232;28;20488;-77
2023/04/05 11:59:12;;;;;;;4.13;2.47;;;15.20;80.30;;;;;;5092414;28;20106;-77
2023/04/05 12:01:38;;;;;;;1.20;0.83;;;15.70;80.80;;;;;;5092724;28;20456;-78
2023/04/05 12:04:06;;;;;;;2.90;2.03;;;16.00;83.40;;;;;;5091586;28;20024;-78
2023/04/05 12:06:32;;;;;;;2.50;1.65;;;17.00;80.40;;;;;;5092789;28;20035;-79
2023/04/05 12:08:58;;;;;;;1.98;1.83;;;16.60;78.90;;;;;;5093394;28;20411;-80
2023/04/05 12:11:30;;;;;;;0.85;0.75;;;16.90;78.10;;;;;;5093668;28;20035;-80
2023/04/05 12:14:01;;;;;;;0.70;0.70;;;17.20;78.80;;;;;;5077335;28;20048;-80
2023/04/05 12:16:27;;;;;;;10.02;2.47;;;18.40;76.90;;;;;;5087924;28;20454;-79
2023/04/05 12:18:55;;;;;;;5.22;2.53;;;17.10;76.70;;;;;;5083866;28;20032;-79
2023/04/05 12:21:21;;;;;;;3.72;1.55;;;17.20;77.40;;;;;;5089017;28;20020;-79
2023/04/05 12:23:49;;;;;;;1.42;1.30;;;17.20;76.60;;;;;;5093233;28;20028;-80
2023/04/05 12:26:15;;;;;;;1.35;1.25;;;17.10;75.50;;;;;;5093555;28;20039;-79
2023/04/05 12:28:50;;;;;;;4.25;2.08;;;17.70;75.50;;;;;;5092960;28;20040;-80
2023/04/05 12:31:16;;;;;;;0.10;0.10;;;18.10;75.40;;;;;;5076612;28;20029;-81
2023/04/05 12:33:43;;;;;;;3.67;1.92;;;18.30;75.00;;;;;;5081514;28;20032;-82
2023/04/05 12:36:10;;;;;;;0.43;0.43;;;18.60;73.50;;;;;;5093211;28;20393;-82
2023/04/05 12:38:37;;;;;;;7.03;1.65;;;19.70;72.60;;;;;;5091775;28;20043;-82
2023/04/05 12:41:03;;;;;;;0.38;0.38;;;19.10;72.10;;;;;;5087454;28;20060;-82
2023/04/05 12:43:42;;;;;;;9.93;5.50;;;17.50;72.60;;;;;;5083405;28;20028;-81
2023/04/05 12:46:16;;;;;;;0.30;0.30;;;16.20;74.50;;;;;;5092927;28;20028;-80
2023/04/05 12:48:42;;;;;;;4.57;3.22;;;15.80;75.20;;;;;;5091529;28;20032;-81
2023/04/05 12:51:15;;;;;;;3.22;2.28;;;16.60;75.20;;;;;;5092726;28;20095;-80
2023/04/05 12:53:48;;;;;;;9.02;2.10;;;17.10;74.80;;;;;;5078576;28;20021;-82
2023/04/05 12:56:15;;;;;;;0.70;0.70;;;17.90;74.00;;;;;;5092595;28;20044;-81
2023/04/05 12:58:41;;;;;;;0.22;0.17;;;19.20;73.30;;;;;;5087157;28;20020;-79
2023/04/05 13:01:07;;;;;;;0.98;0.98;;;20.80;70.90;;;;;;5092113;28;20075;-78
2023/04/05 13:03:33;;;;;;;5.88;2.30;;;21.60;71.00;;;;;;5091627;28;20426;-81
2023/04/05 13:05:58;;;;;;;0.75;0.75;;;21.20;68.50;;;;;;5091846;28;20388;-81
2023/04/05 13:08:25;;;;;;;1.10;1.02;;;21.70;68.30;;;;;;5092286;28;20031;-80